createdAt,value
2018-07-25T00:00:50.481Z,937.00
2018-07-25T00:01:50.467Z,937.02
2018-07-25T00:02:50.521Z,937.04
2018-07-25T00:03:50.572Z,936.97
2018-07-25T00:04:50.602Z,937.06
2018-07-25T00:05:50.660Z,937.07
2018-07-25T00:06:50.679Z,937.04
2018-07-25T00:07:50.751Z,937.04
2018-07-25T00:08:50.791Z,937.05
2018-07-25T00:09:50.805Z,936.98
2018-07-25T00:10:50.870Z,937.02
2018-07-25T00:11:50.938Z,936.99
2018-07-25T00:12:50.975Z,937.01
2018-07-25T00:13:50.986Z,936.99
2018-07-25T00:14:51.071Z,936.99
2018-07-25T00:15:51.114Z,936.99
2018-07-25T00:16:51.148Z,936.95
2018-07-25T00:17:51.168Z,936.98
2018-07-25T00:18:51.222Z,937.02
2018-07-25T00:19:51.275Z,937.03
2018-07-25T00:20:51.327Z,937.04
2018-07-25T00:21:51.359Z,937.06
2018-07-25T00:22:51.395Z,937.06
2018-07-25T00:23:51.433Z,937.11
2018-07-25T00:24:51.455Z,937.11
2018-07-25T00:25:51.514Z,937.07
2018-07-25T00:26:51.590Z,937.07
2018-07-25T00:27:51.610Z,937.09
2018-07-25T00:28:51.648Z,937.09
2018-07-25T00:29:51.682Z,937.12
2018-07-25T00:30:51.760Z,937.17
2018-07-25T00:31:51.786Z,937.15
2018-07-25T00:32:51.815Z,937.16
2018-07-25T00:33:51.872Z,937.18
2018-07-25T00:34:51.917Z,937.18
2018-07-25T00:35:51.949Z,937.20
2018-07-25T00:36:51.990Z,937.15
2018-07-25T00:37:52.030Z,937.15
2018-07-25T00:38:52.073Z,937.12
2018-07-25T00:39:52.093Z,937.11
2018-07-25T00:40:52.165Z,937.15
2018-07-25T00:41:52.211Z,937.12
2018-07-25T00:42:52.250Z,937.07
2018-07-25T00:43:52.286Z,937.11
2018-07-25T00:44:52.327Z,937.06
2018-07-25T00:45:52.375Z,937.11
2018-07-25T00:46:52.434Z,937.04
2018-07-25T00:47:52.454Z,937.07
2018-07-25T00:48:52.516Z,937.12
2018-07-25T00:49:52.529Z,937.10
2018-07-25T00:50:52.572Z,937.12
2018-07-25T00:51:52.616Z,937.06
2018-07-25T00:52:52.694Z,937.12
2018-07-25T00:53:52.725Z,937.13
2018-07-25T00:54:52.740Z,937.15
2018-07-25T00:55:52.823Z,937.15
2018-07-25T00:56:52.868Z,937.11
2018-07-25T00:57:52.899Z,937.13
2018-07-25T00:58:52.926Z,937.17
2018-07-25T00:59:52.963Z,937.13
2018-07-25T01:00:53.020Z,937.11
2018-07-25T01:01:53.034Z,937.07
2018-07-25T01:02:53.115Z,937.09
2018-07-25T01:03:53.160Z,937.08
2018-07-25T01:04:53.181Z,937.10
2018-07-25T01:05:53.216Z,937.09
2018-07-25T01:06:53.257Z,937.14
2018-07-25T01:07:53.324Z,937.16
2018-07-25T01:08:53.331Z,937.14
2018-07-25T01:09:53.403Z,937.20
2018-07-25T01:10:53.441Z,937.20
2018-07-25T01:11:53.494Z,937.15
2018-07-25T01:12:53.519Z,937.13
2018-07-25T01:13:53.576Z,937.16
2018-07-25T01:14:53.608Z,937.11
2018-07-25T01:15:53.650Z,937.18
2018-07-25T01:16:53.700Z,937.13
2018-07-25T01:17:53.734Z,937.13
2018-07-25T01:18:53.807Z,937.14
2018-07-25T01:19:53.838Z,937.16
2018-07-25T01:20:53.842Z,937.17
2018-07-25T01:21:53.912Z,937.20
2018-07-25T01:22:53.944Z,937.19
2018-07-25T01:23:54.032Z,937.21
2018-07-25T01:24:54.059Z,937.20
2018-07-25T01:25:54.076Z,937.18
2018-07-25T01:26:54.122Z,937.20
2018-07-25T01:27:54.164Z,937.19
2018-07-25T01:28:54.185Z,937.18
2018-07-25T01:29:54.246Z,937.20
2018-07-25T01:30:54.289Z,937.20
2018-07-25T01:31:54.347Z,937.21
2018-07-25T01:32:54.366Z,937.19
2018-07-25T01:33:54.431Z,937.20
2018-07-25T01:34:54.452Z,937.19
2018-07-25T01:35:54.508Z,937.20
2018-07-25T01:36:54.548Z,937.21
2018-07-25T01:37:54.587Z,937.16
2018-07-25T01:38:54.647Z,937.17
2018-07-25T01:39:54.654Z,937.20
2018-07-25T01:40:54.708Z,937.12
2018-07-25T01:41:54.760Z,937.09
2018-07-25T01:42:54.810Z,937.14
2018-07-25T01:43:54.841Z,937.09
2018-07-25T01:44:54.895Z,937.13
2018-07-25T01:45:54.925Z,937.08
2018-07-25T01:46:54.974Z,937.12
2018-07-25T01:47:55.001Z,937.09
2018-07-25T01:48:55.041Z,937.13
2018-07-25T01:49:55.147Z,937.10
2018-07-25T01:50:55.155Z,937.13
2018-07-25T01:51:55.218Z,937.11
2018-07-25T01:52:55.440Z,937.15
2018-07-25T01:53:55.246Z,937.14
2018-07-25T01:54:55.322Z,937.15
2018-07-25T01:55:55.343Z,937.15
2018-07-25T01:56:55.452Z,937.13
2018-07-25T01:57:55.441Z,937.12
2018-07-25T01:58:55.500Z,937.11
2018-07-25T01:59:55.532Z,937.05
2018-07-25T02:00:55.577Z,937.04
2018-07-25T02:01:55.640Z,937.06
2018-07-25T02:02:55.649Z,937.01
2018-07-25T02:03:55.725Z,936.99
2018-07-25T02:04:55.742Z,937.02
2018-07-25T02:05:55.790Z,937.01
2018-07-25T02:06:55.870Z,937.04
2018-07-25T02:07:55.877Z,937.06
2018-07-25T02:08:55.893Z,937.03
2018-07-25T02:09:56.015Z,937.07
2018-07-25T02:10:56.000Z,937.04
2018-07-25T02:11:56.091Z,937.04
2018-07-25T02:12:56.081Z,937.04
2018-07-25T02:13:56.343Z,937.02
2018-07-25T02:14:56.145Z,937.08
2018-07-25T02:15:56.229Z,937.11
2018-07-25T02:16:56.244Z,937.08
2018-07-25T02:17:56.320Z,937.12
2018-07-25T02:18:56.347Z,937.12
2018-07-25T02:19:56.402Z,937.14
2018-07-25T02:20:56.429Z,937.10
2018-07-25T02:21:56.471Z,937.06
2018-07-25T02:22:56.534Z,937.12
2018-07-25T02:23:56.533Z,937.14
2018-07-25T02:24:56.590Z,937.09
2018-07-25T02:25:56.654Z,937.13
2018-07-25T02:26:56.699Z,937.02
2018-07-25T02:27:56.723Z,937.04
2018-07-25T02:28:56.957Z,937.06
2018-07-25T02:29:56.838Z,937.05
2018-07-25T02:30:56.852Z,937.09
2018-07-25T02:31:56.895Z,937.08
2018-07-25T02:32:56.934Z,937.11
2018-07-25T02:33:57.000Z,937.11
2018-07-25T02:34:57.036Z,937.06
2018-07-25T02:35:57.120Z,937.02
2018-07-25T02:36:57.124Z,937.01
2018-07-25T02:37:57.170Z,937.00
2018-07-25T02:38:57.192Z,937.00
2018-07-25T02:39:57.219Z,937.01
2018-07-25T02:40:57.271Z,937.00
2018-07-25T02:41:57.334Z,937.05
2018-07-25T02:42:57.432Z,937.03
2018-07-25T02:43:57.408Z,937.04
2018-07-25T02:44:57.433Z,937.06
2018-07-25T02:45:57.509Z,937.09
2018-07-25T02:46:57.555Z,937.05
2018-07-25T02:47:57.562Z,937.02
2018-07-25T02:48:57.638Z,937.04
2018-07-25T02:49:57.687Z,937.02
2018-07-25T02:50:57.713Z,937.00
2018-07-25T02:51:57.768Z,937.04
2018-07-25T02:52:57.803Z,937.01
2018-07-25T02:53:57.845Z,937.02
2018-07-25T02:54:57.870Z,937.04
2018-07-25T02:55:57.934Z,937.04
2018-07-25T02:56:58.069Z,937.06
2018-07-25T02:57:58.033Z,937.08
2018-07-25T02:58:58.046Z,937.06
2018-07-25T02:59:58.090Z,937.08
2018-07-25T03:00:58.138Z,937.06
2018-07-25T03:01:58.192Z,937.02
2018-07-25T03:02:58.211Z,937.03
2018-07-25T03:03:58.292Z,937.04
2018-07-25T03:04:58.299Z,937.06
2018-07-25T03:05:58.322Z,937.03
2018-07-25T03:06:58.391Z,937.07
2018-07-25T03:07:58.463Z,937.03
2018-07-25T03:08:58.555Z,937.04
2018-07-25T03:09:58.525Z,937.07
2018-07-25T03:10:58.560Z,937.05
2018-07-25T03:11:58.622Z,937.05
2018-07-25T03:12:58.675Z,937.08
2018-07-25T03:13:58.679Z,937.08
2018-07-25T03:14:58.739Z,937.04
2018-07-25T03:15:58.794Z,937.09
2018-07-25T03:16:58.836Z,937.01
2018-07-25T03:17:58.893Z,937.03
2018-07-25T03:18:58.905Z,937.07
2018-07-25T03:19:58.954Z,937.03
2018-07-25T03:20:59.041Z,937.04
2018-07-25T03:21:59.023Z,937.06
2018-07-25T03:22:59.101Z,937.00
2018-07-25T03:23:59.181Z,937.01
2018-07-25T03:24:59.167Z,937.02
2018-07-25T03:25:59.198Z,936.98
2018-07-25T03:26:59.245Z,936.98
2018-07-25T03:27:59.297Z,936.98
2018-07-25T03:28:59.370Z,936.94
2018-07-25T03:29:59.424Z,936.96
2018-07-25T03:30:59.447Z,936.99
2018-07-25T03:31:59.504Z,936.91
2018-07-25T03:32:59.506Z,936.94
2018-07-25T03:33:59.567Z,936.95
2018-07-25T03:34:59.602Z,936.89
2018-07-25T03:35:59.612Z,936.98
2018-07-25T03:36:59.676Z,936.89
2018-07-25T03:37:59.725Z,936.88
2018-07-25T03:38:59.751Z,936.88
2018-07-25T03:39:59.787Z,936.84
2018-07-25T03:40:59.879Z,936.85
2018-07-25T03:41:59.878Z,936.78
2018-07-25T03:42:59.949Z,936.77
2018-07-25T03:43:59.984Z,936.73
2018-07-25T03:45:00.043Z,936.65
2018-07-25T03:46:00.057Z,936.71
2018-07-25T03:47:00.109Z,936.58
2018-07-25T03:48:00.146Z,936.62
2018-07-25T03:49:00.188Z,936.60
2018-07-25T03:50:00.244Z,936.57
2018-07-25T03:51:00.250Z,936.55
2018-07-25T03:52:00.340Z,936.49
2018-07-25T03:53:00.398Z,936.47
2018-07-25T03:54:00.437Z,936.52
2018-07-25T03:55:00.461Z,936.45
2018-07-25T03:56:00.733Z,936.46
2018-07-25T03:57:00.508Z,936.43
2018-07-25T03:58:00.568Z,936.45
2018-07-25T03:59:00.616Z,936.43
2018-07-25T04:00:00.720Z,936.42
2018-07-25T04:01:00.668Z,936.40
2018-07-25T04:02:00.767Z,936.33
2018-07-25T04:03:00.781Z,936.34
2018-07-25T04:04:00.823Z,936.31
2018-07-25T04:05:00.891Z,936.32
2018-07-25T04:06:00.965Z,936.32
2018-07-25T04:07:00.929Z,936.26
2018-07-25T04:08:01.274Z,936.30
2018-07-25T04:09:01.034Z,936.30
2018-07-25T04:10:01.086Z,936.29
2018-07-25T04:11:01.144Z,936.24
2018-07-25T04:12:01.150Z,936.27
2018-07-25T04:13:01.199Z,936.34
2018-07-25T04:14:01.255Z,936.28
2018-07-25T04:15:01.280Z,936.31
2018-07-25T04:16:01.378Z,936.25
2018-07-25T04:17:01.375Z,936.29
2018-07-25T04:18:01.469Z,936.29
2018-07-25T04:19:01.455Z,936.34
2018-07-25T04:20:01.530Z,936.28
2018-07-25T04:21:01.574Z,936.28
2018-07-25T04:22:01.608Z,936.23
2018-07-25T04:23:01.658Z,936.21
2018-07-25T04:24:01.682Z,936.20
2018-07-25T04:25:01.717Z,936.16
2018-07-25T04:26:01.745Z,936.12
2018-07-25T04:27:01.801Z,936.09
2018-07-25T04:28:01.844Z,936.11
2018-07-25T04:29:01.944Z,936.09
2018-07-25T04:30:02.153Z,936.08
2018-07-25T04:31:01.967Z,936.14
2018-07-25T04:32:02.031Z,936.10
2018-07-25T04:33:02.038Z,936.07
2018-07-25T04:34:02.115Z,936.10
2018-07-25T04:35:02.154Z,936.09
2018-07-25T04:36:02.201Z,936.10
2018-07-25T04:37:02.212Z,936.10
2018-07-25T04:38:02.276Z,936.06
2018-07-25T04:39:02.282Z,936.05
2018-07-25T04:40:02.347Z,936.09
2018-07-25T04:41:02.386Z,936.09
2018-07-25T04:42:02.639Z,936.12
2018-07-25T04:43:02.466Z,936.09
2018-07-25T04:44:02.529Z,936.03
2018-07-25T04:45:02.539Z,936.07
2018-07-25T04:46:02.661Z,936.05
2018-07-25T04:47:02.644Z,936.05
2018-07-25T04:48:02.738Z,936.09
2018-07-25T04:49:02.729Z,936.07
2018-07-25T04:50:02.766Z,936.08
2018-07-25T04:51:02.806Z,936.08
2018-07-25T04:52:02.843Z,936.06
2018-07-25T04:53:02.915Z,936.04
2018-07-25T04:54:03.133Z,936.05
2018-07-25T04:55:03.006Z,936.02
2018-07-25T04:56:03.056Z,936.05
2018-07-25T04:57:03.070Z,936.06
2018-07-25T04:58:03.155Z,936.02
2018-07-25T04:59:03.138Z,936.06
2018-07-25T05:00:03.197Z,936.06
2018-07-25T05:01:03.210Z,936.08
2018-07-25T05:02:03.299Z,936.06
2018-07-25T05:03:03.317Z,936.02
2018-07-25T05:04:03.340Z,936.00
2018-07-25T05:05:03.597Z,936.00
2018-07-25T05:06:03.449Z,936.03
2018-07-25T05:07:03.549Z,936.02
2018-07-25T05:08:03.532Z,936.02
2018-07-25T05:09:03.546Z,936.04
2018-07-25T05:10:03.613Z,936.01
2018-07-25T05:11:03.697Z,936.02
2018-07-25T05:12:03.689Z,936.02
2018-07-25T05:13:03.735Z,935.96
2018-07-25T05:14:03.792Z,935.93
2018-07-25T05:15:03.809Z,935.93
2018-07-25T05:16:03.867Z,935.88
2018-07-25T05:17:03.878Z,935.87
2018-07-25T05:18:03.943Z,935.89
2018-07-25T05:19:03.995Z,935.87
2018-07-25T05:20:04.246Z,935.85
2018-07-25T05:21:04.055Z,935.85
2018-07-25T05:22:04.133Z,935.88
2018-07-25T05:23:04.138Z,935.92
2018-07-25T05:24:04.169Z,935.87
2018-07-25T05:25:04.245Z,935.88
2018-07-25T05:26:04.267Z,935.87
2018-07-25T05:27:04.342Z,935.89
2018-07-25T05:28:04.355Z,935.85
2018-07-25T05:29:04.420Z,935.89
2018-07-25T05:30:04.507Z,935.83
2018-07-25T05:31:04.536Z,935.85
2018-07-25T05:32:04.555Z,935.82
2018-07-25T05:33:04.563Z,935.82
2018-07-25T05:34:04.609Z,935.77
2018-07-25T05:35:04.656Z,935.78
2018-07-25T05:36:04.742Z,935.77
2018-07-25T05:37:04.744Z,935.75
2018-07-25T05:38:04.837Z,935.72
2018-07-25T05:39:04.823Z,935.73
2018-07-25T05:40:04.916Z,935.73
2018-07-25T05:41:04.902Z,935.72
2018-07-25T05:42:04.966Z,935.74
2018-07-25T05:43:05.198Z,935.77
2018-07-25T05:44:05.044Z,935.77
2018-07-25T05:45:05.069Z,935.73
2018-07-25T05:46:05.148Z,935.78
2018-07-25T05:47:05.179Z,935.76
2018-07-25T05:48:05.208Z,935.75
2018-07-25T05:49:05.255Z,935.73
2018-07-25T05:50:05.288Z,935.67
2018-07-25T05:51:05.343Z,935.70
2018-07-25T05:52:05.383Z,935.66
2018-07-25T05:53:05.413Z,935.64
2018-07-25T05:54:05.443Z,935.66
2018-07-25T05:55:05.508Z,935.63
2018-07-25T05:56:05.541Z,935.67
2018-07-25T05:57:05.581Z,935.64
2018-07-25T05:58:05.655Z,935.66
2018-07-25T05:59:05.691Z,935.66
2018-07-25T06:00:05.708Z,935.62
2018-07-25T06:01:05.952Z,935.63
2018-07-25T06:02:05.797Z,935.57
2018-07-25T06:03:05.933Z,935.61
2018-07-25T06:04:05.892Z,935.58
2018-07-25T06:05:05.926Z,935.55
2018-07-25T06:06:05.975Z,935.58
2018-07-25T06:07:06.017Z,935.63
2018-07-25T06:08:06.041Z,935.59
2018-07-25T06:09:06.081Z,935.61
2018-07-25T06:10:06.124Z,935.60
2018-07-25T06:11:06.191Z,935.56
2018-07-25T06:12:06.230Z,935.59
2018-07-25T06:13:06.456Z,935.58
2018-07-25T06:14:06.318Z,935.53
2018-07-25T06:15:06.389Z,935.51
2018-07-25T06:16:06.415Z,935.49
2018-07-25T06:17:06.442Z,935.50
2018-07-25T06:18:06.484Z,935.43
2018-07-25T06:19:06.540Z,935.43
2018-07-25T06:20:06.577Z,935.45
2018-07-25T06:21:06.600Z,935.44
2018-07-25T06:22:06.660Z,935.44
2018-07-25T06:23:06.700Z,935.42
2018-07-25T06:24:06.930Z,935.45
2018-07-25T06:25:06.783Z,935.40
2018-07-25T06:26:06.830Z,935.45
2018-07-25T06:27:06.878Z,935.42
2018-07-25T06:28:06.907Z,935.43
2018-07-25T06:29:07.024Z,935.46
2018-07-25T06:30:07.004Z,935.43
2018-07-25T06:31:07.050Z,935.46
2018-07-25T06:32:07.098Z,935.49
2018-07-25T06:33:07.140Z,935.46
2018-07-25T06:34:07.177Z,935.46
2018-07-25T06:35:07.413Z,935.47
2018-07-25T06:36:07.232Z,935.48
2018-07-25T06:37:07.276Z,935.46
2018-07-25T06:38:07.339Z,935.44
2018-07-25T06:39:07.399Z,935.47
2018-07-25T06:40:07.403Z,935.46
2018-07-25T06:41:07.457Z,935.48
2018-07-25T06:42:07.508Z,935.43
2018-07-25T06:43:07.555Z,935.42
2018-07-25T06:44:07.579Z,935.41
2018-07-25T06:45:07.623Z,935.38
2018-07-25T06:46:07.881Z,935.37
2018-07-25T06:47:07.773Z,935.40
2018-07-25T06:48:07.769Z,935.39
2018-07-25T06:49:07.798Z,935.39
2018-07-25T06:50:07.845Z,935.46
2018-07-25T06:51:07.870Z,935.43
2018-07-25T06:52:07.918Z,935.44
2018-07-25T06:53:07.992Z,935.44
2018-07-25T06:54:08.007Z,935.45
2018-07-25T06:55:08.052Z,935.44
2018-07-25T06:56:08.082Z,935.39
2018-07-25T06:57:08.154Z,935.40
2018-07-25T06:58:08.369Z,935.37
2018-07-25T06:59:08.249Z,935.37
2018-07-25T07:00:08.259Z,935.40
2018-07-25T07:01:08.316Z,935.38
2018-07-25T07:02:08.372Z,935.39
2018-07-25T07:03:08.420Z,935.39
2018-07-25T07:04:08.491Z,935.34
2018-07-25T07:05:08.477Z,935.37
2018-07-25T07:06:08.535Z,935.36
2018-07-25T07:07:08.577Z,935.37
2018-07-25T07:08:08.592Z,935.41
2018-07-25T07:09:08.840Z,935.34
2018-07-25T07:10:08.716Z,935.33
2018-07-25T07:11:08.736Z,935.40
2018-07-25T07:12:08.835Z,935.33
2018-07-25T07:13:08.831Z,935.34
2018-07-25T07:14:08.852Z,935.33
2018-07-25T07:15:08.918Z,935.32
2018-07-25T07:16:08.963Z,935.36
2018-07-25T07:17:09.038Z,935.35
2018-07-25T07:18:09.026Z,935.36
2018-07-25T07:19:09.080Z,935.33
2018-07-25T07:20:09.358Z,935.29
2018-07-25T07:21:09.201Z,935.30
2018-07-25T07:22:09.173Z,935.29
2018-07-25T07:23:09.221Z,935.28
2018-07-25T07:24:09.361Z,935.25
2018-07-25T07:25:09.324Z,935.28
2018-07-25T07:26:09.382Z,935.26
2018-07-25T07:27:09.424Z,935.28
2018-07-25T07:28:09.458Z,935.28
2018-07-25T07:29:09.563Z,935.23
2018-07-25T07:30:09.563Z,935.22
2018-07-25T07:31:09.786Z,935.24
2018-07-25T07:32:09.638Z,935.18
2018-07-25T07:33:09.704Z,935.16
2018-07-25T07:34:09.763Z,935.17
2018-07-25T07:35:09.813Z,935.15
2018-07-25T07:36:09.855Z,935.17
2018-07-25T07:37:09.884Z,935.21
2018-07-25T07:38:09.888Z,935.22
2018-07-25T07:39:09.937Z,935.21
2018-07-25T07:40:09.959Z,935.18
2018-07-25T07:41:10.012Z,935.18
2018-07-25T07:42:10.062Z,935.16
2018-07-25T07:43:10.304Z,935.15
2018-07-25T07:44:10.247Z,935.14
2018-07-25T07:45:10.196Z,935.17
2018-07-25T07:46:10.224Z,935.20
2018-07-25T07:47:10.258Z,935.20
2018-07-25T07:48:10.314Z,935.17
2018-07-25T07:49:10.344Z,935.21
2018-07-25T07:50:10.394Z,935.15
2018-07-25T07:51:10.434Z,935.24
2018-07-25T07:52:10.489Z,935.25
2018-07-25T07:53:10.531Z,935.26
2018-07-25T07:54:10.573Z,935.28
2018-07-25T07:55:10.797Z,935.31
2018-07-25T07:56:10.636Z,935.28
2018-07-25T07:57:10.687Z,935.29
2018-07-25T07:58:10.747Z,935.33
2018-07-25T07:59:10.761Z,935.31
2018-07-25T08:00:10.807Z,935.31
2018-07-25T08:01:10.853Z,935.26
2018-07-25T08:02:10.876Z,935.27
2018-07-25T08:03:10.952Z,935.30
2018-07-25T08:04:10.990Z,935.36
2018-07-25T08:05:11.004Z,935.34
2018-07-25T08:06:11.053Z,935.37
2018-07-25T08:07:11.364Z,935.30
2018-07-25T08:08:11.166Z,935.27
2018-07-25T08:09:11.200Z,935.27
2018-07-25T08:10:11.234Z,935.31
2018-07-25T08:11:11.290Z,935.34
2018-07-25T08:12:11.328Z,935.36
2018-07-25T08:13:11.337Z,935.36
2018-07-25T08:14:11.413Z,935.36
2018-07-25T08:15:11.459Z,935.33
2018-07-25T08:16:11.491Z,935.32
2018-07-25T08:17:11.533Z,935.36
2018-07-25T08:18:11.767Z,935.36
2018-07-25T08:19:11.627Z,935.35
2018-07-25T08:20:11.661Z,935.32
2018-07-25T08:21:11.761Z,935.33
2018-07-25T08:22:11.754Z,935.34
2018-07-25T08:23:11.787Z,935.35
2018-07-25T08:24:11.847Z,935.36
2018-07-25T08:25:11.865Z,935.40
2018-07-25T08:26:11.904Z,935.35
2018-07-25T08:27:11.976Z,935.38
2018-07-25T08:28:12.002Z,935.36
2018-07-25T08:29:12.046Z,935.38
2018-07-25T08:30:12.330Z,935.37
2018-07-25T08:31:12.109Z,935.39
2018-07-25T08:32:12.180Z,935.40
2018-07-25T08:33:12.180Z,935.39
2018-07-25T08:34:12.259Z,935.44
2018-07-25T08:35:12.299Z,935.41
2018-07-25T08:36:12.317Z,935.44
2018-07-25T08:37:12.383Z,935.44
2018-07-25T08:38:12.452Z,935.45
2018-07-25T08:39:12.465Z,935.44
2018-07-25T08:40:12.524Z,935.57
2018-07-25T08:41:12.565Z,935.60
2018-07-25T08:42:12.609Z,935.59
2018-07-25T08:43:12.629Z,935.59
2018-07-25T08:44:12.651Z,935.61
2018-07-25T08:45:12.725Z,935.62
2018-07-25T08:46:13.007Z,935.63
2018-07-25T08:47:12.792Z,935.60
2018-07-25T08:48:12.837Z,935.63
2018-07-25T08:49:12.865Z,935.63
2018-07-25T08:50:12.921Z,935.67
2018-07-25T08:51:12.964Z,935.69
2018-07-25T08:52:12.972Z,935.66
2018-07-25T08:53:13.039Z,935.68
2018-07-25T08:54:13.102Z,935.67
2018-07-25T08:55:13.125Z,935.69
2018-07-25T08:56:13.153Z,935.70
2018-07-25T08:57:13.210Z,935.66
2018-07-25T08:58:13.239Z,935.71
2018-07-25T08:59:13.325Z,935.71
2018-07-25T09:00:13.333Z,935.73
2018-07-25T09:01:13.382Z,935.70
2018-07-25T09:02:13.604Z,935.72
2018-07-25T09:03:13.458Z,935.71
2018-07-25T09:04:13.530Z,935.73
2018-07-25T09:05:13.563Z,935.76
2018-07-25T09:06:13.588Z,935.76
2018-07-25T09:07:13.662Z,935.76
2018-07-25T09:08:13.691Z,935.79
2018-07-25T09:09:13.734Z,935.80
2018-07-25T09:10:13.783Z,935.84
2018-07-25T09:11:13.802Z,935.89
2018-07-25T09:12:13.867Z,935.84
2018-07-25T09:13:13.864Z,935.87
2018-07-25T09:14:13.935Z,935.88
2018-07-25T09:15:13.994Z,935.91
2018-07-25T09:16:14.033Z,935.94
2018-07-25T09:17:14.103Z,935.98
2018-07-25T09:18:14.101Z,935.98
2018-07-25T09:19:14.153Z,936.00
2018-07-25T09:20:14.212Z,935.98
2018-07-25T09:21:14.245Z,936.03
2018-07-25T09:22:14.303Z,935.95
2018-07-25T09:23:14.341Z,935.97
2018-07-25T09:24:14.355Z,935.99
2018-07-25T09:25:14.442Z,935.98
2018-07-25T09:26:14.443Z,935.98
2018-07-25T09:27:14.486Z,936.04
2018-07-25T09:28:14.531Z,935.92
2018-07-25T09:29:14.758Z,936.00
2018-07-25T09:30:14.606Z,935.96
2018-07-25T09:31:14.654Z,935.98
2018-07-25T09:32:14.707Z,935.96
2018-07-25T09:33:14.758Z,935.93
2018-07-25T09:34:14.918Z,935.95
2018-07-25T09:35:14.827Z,935.96
2018-07-25T09:36:14.860Z,935.98
2018-07-25T09:37:14.919Z,935.90
2018-07-25T09:38:14.946Z,935.90
2018-07-25T09:39:14.980Z,935.95
2018-07-25T09:40:15.035Z,935.94
2018-07-25T09:41:15.094Z,935.96
2018-07-25T09:42:15.134Z,935.96
2018-07-25T09:43:15.233Z,935.99
2018-07-25T09:44:15.204Z,936.02
2018-07-25T09:45:15.244Z,936.02
2018-07-25T09:46:15.295Z,936.01
2018-07-25T09:47:15.330Z,936.00
2018-07-25T09:48:15.379Z,936.00
2018-07-25T09:49:15.437Z,936.00
2018-07-25T09:50:15.484Z,936.00
2018-07-25T09:51:15.485Z,936.03
2018-07-25T09:52:15.565Z,936.02
2018-07-25T09:53:15.731Z,936.02
2018-07-25T09:54:15.631Z,936.04
2018-07-25T09:55:15.700Z,936.03
2018-07-25T09:56:15.701Z,936.04
2018-07-25T09:57:15.981Z,935.99
2018-07-25T09:58:15.807Z,936.00
2018-07-25T09:59:15.850Z,936.03
2018-07-25T10:00:15.904Z,936.03
2018-07-25T10:01:15.908Z,936.06
2018-07-25T10:02:15.971Z,936.09
2018-07-25T10:03:16.012Z,936.09
2018-07-25T10:04:16.066Z,936.11
2018-07-25T10:05:16.085Z,936.13
2018-07-25T10:06:16.111Z,936.12
2018-07-25T10:07:16.230Z,936.11
2018-07-25T10:08:16.262Z,936.17
2018-07-25T10:09:16.264Z,936.17
2018-07-25T10:10:16.311Z,936.17
2018-07-25T10:11:16.384Z,936.24
2018-07-25T10:12:16.434Z,936.25
2018-07-25T10:13:16.432Z,936.27
2018-07-25T10:14:16.510Z,936.30
2018-07-25T10:15:16.680Z,936.26
2018-07-25T10:16:16.578Z,936.31
2018-07-25T10:17:16.618Z,936.30
2018-07-25T10:18:16.667Z,936.31
2018-07-25T10:19:16.723Z,936.37
2018-07-25T10:20:16.786Z,936.35
2018-07-25T10:21:16.838Z,936.30
2018-07-25T10:22:16.882Z,936.29
2018-07-25T10:23:16.914Z,936.30
2018-07-25T10:24:16.999Z,936.26
2018-07-25T10:25:16.942Z,936.26
2018-07-25T10:26:17.024Z,936.25
2018-07-25T10:27:17.125Z,936.26
2018-07-25T10:28:17.109Z,936.24
2018-07-25T10:29:17.116Z,936.26
2018-07-25T10:30:17.185Z,936.27
2018-07-25T10:31:17.202Z,936.32
2018-07-25T10:32:17.307Z,936.35
2018-07-25T10:33:17.303Z,936.33
2018-07-25T10:34:17.355Z,936.39
2018-07-25T10:35:17.396Z,936.45
2018-07-25T10:36:17.404Z,936.45
2018-07-25T10:37:17.460Z,936.43
2018-07-25T10:38:17.523Z,936.48
2018-07-25T10:39:17.613Z,936.48
2018-07-25T10:40:17.579Z,936.50
2018-07-25T10:41:17.649Z,936.48
2018-07-25T10:42:17.704Z,936.51
2018-07-25T10:43:17.742Z,936.55
2018-07-25T10:44:17.792Z,936.50
2018-07-25T10:45:17.851Z,936.50
2018-07-25T10:46:17.875Z,936.50
2018-07-25T10:47:17.900Z,936.48
2018-07-25T10:48:17.938Z,936.48
2018-07-25T10:49:17.998Z,936.45
2018-07-25T10:50:18.059Z,936.50
2018-07-25T10:51:18.298Z,936.49
2018-07-25T10:52:18.118Z,936.50
2018-07-25T10:53:18.183Z,936.50
2018-07-25T10:54:18.209Z,936.53
2018-07-25T10:55:18.252Z,936.55
2018-07-25T10:56:18.287Z,936.58
2018-07-25T10:57:18.401Z,936.58
2018-07-25T10:58:18.371Z,936.63
2018-07-25T10:59:18.406Z,936.62
2018-07-25T11:00:18.487Z,936.67
2018-07-25T11:01:18.537Z,936.63
2018-07-25T11:02:18.678Z,936.65
2018-07-25T11:03:18.608Z,936.64
2018-07-25T11:04:18.619Z,936.64
2018-07-25T11:05:18.699Z,936.65
2018-07-25T11:06:18.729Z,936.69
2018-07-25T11:07:18.797Z,936.69
2018-07-25T11:08:18.808Z,936.69
2018-07-25T11:09:18.865Z,936.71
2018-07-25T11:10:18.888Z,936.74
2018-07-25T11:11:18.942Z,936.81
2018-07-25T11:12:19.184Z,936.80
2018-07-25T11:13:19.040Z,936.78
2018-07-25T11:14:19.054Z,936.78
2018-07-25T11:15:19.123Z,936.75
2018-07-25T11:16:19.294Z,936.75
2018-07-25T11:17:19.193Z,936.76
2018-07-25T11:18:19.253Z,936.79
2018-07-25T11:19:19.292Z,936.76
2018-07-25T11:20:19.325Z,936.80
2018-07-25T11:21:19.393Z,936.80
2018-07-25T11:22:19.447Z,936.78
2018-07-25T11:23:19.471Z,936.84
2018-07-25T11:24:19.703Z,936.88
2018-07-25T11:25:19.556Z,936.83
2018-07-25T11:26:19.607Z,936.89
2018-07-25T11:27:19.665Z,936.87
2018-07-25T11:28:19.703Z,936.87
2018-07-25T11:29:19.756Z,936.87
2018-07-25T11:30:19.792Z,936.90
2018-07-25T11:31:19.825Z,936.98
2018-07-25T11:32:19.867Z,936.97
2018-07-25T11:33:19.893Z,937.00
2018-07-25T11:34:19.925Z,936.94
2018-07-25T11:35:19.983Z,936.94
2018-07-25T11:36:20.027Z,936.93
2018-07-25T11:37:20.063Z,936.93
2018-07-25T11:38:20.104Z,936.97
2018-07-25T11:39:20.171Z,937.01
2018-07-25T11:40:20.209Z,937.03
2018-07-25T11:41:20.260Z,937.04
2018-07-25T11:42:20.281Z,937.07
2018-07-25T11:43:20.357Z,937.10
2018-07-25T11:44:20.388Z,937.13
2018-07-25T11:45:20.412Z,937.17
2018-07-25T11:46:20.459Z,937.11
2018-07-25T11:47:20.523Z,937.19
2018-07-25T11:48:20.548Z,937.15
2018-07-25T11:49:20.594Z,937.16
2018-07-25T11:50:20.688Z,937.12
2018-07-25T11:51:20.687Z,937.18
2018-07-25T11:52:20.742Z,937.14
2018-07-25T11:53:20.782Z,937.18
2018-07-25T11:54:20.831Z,937.18
2018-07-25T11:55:20.879Z,937.19
2018-07-25T11:56:20.941Z,937.21
2018-07-25T11:57:20.951Z,937.22
2018-07-25T11:58:21.006Z,937.22
2018-07-25T11:59:21.032Z,937.24
2018-07-25T12:00:21.097Z,937.22
2018-07-25T12:01:21.203Z,937.23
2018-07-25T12:02:21.196Z,937.24
2018-07-25T12:03:21.216Z,937.27
2018-07-25T12:04:21.285Z,937.28
2018-07-25T12:05:21.335Z,937.33
2018-07-25T12:06:21.364Z,937.40
2018-07-25T12:07:21.406Z,937.39
2018-07-25T12:08:21.449Z,937.42
2018-07-25T12:09:21.461Z,937.39
2018-07-25T12:10:21.533Z,937.37
2018-07-25T12:11:21.794Z,937.34
2018-07-25T12:12:21.622Z,937.35
2018-07-25T12:13:21.665Z,937.35
2018-07-25T12:14:21.722Z,937.33
2018-07-25T12:15:21.755Z,937.36
2018-07-25T12:16:21.815Z,937.43
2018-07-25T12:17:21.842Z,937.42
2018-07-25T12:18:21.879Z,937.41
2018-07-25T12:19:21.981Z,937.42
2018-07-25T12:20:22.018Z,937.39
2018-07-25T12:21:22.140Z,937.37
2018-07-25T12:22:22.278Z,937.38
2018-07-25T12:23:22.106Z,937.42
2018-07-25T12:24:22.147Z,937.43
2018-07-25T12:25:22.216Z,937.51
2018-07-25T12:26:22.256Z,937.50
2018-07-25T12:27:22.304Z,937.45
2018-07-25T12:28:22.339Z,937.46
2018-07-25T12:29:22.410Z,937.48